sensor_id;sensor_type;location;lat;lon;timestamp;P1;durP1;ratioP1;P2;durP2;ratioP2
61531;SDS011;47397;48.194;11.632;2022-09-24T00:00:31;4.20;;;3.80;;
61531;SDS011;47397;48.194;11.632;2022-09-24T00:01:33;4.55;;;3.67;;
61531;SDS011;47397;48.194;11.632;2022-09-24T00:02:35;4.80;;;3.83;;
61531;SDS011;47397;48.194;11.632;2022-09-24T00:03:36;4.25;;;3.70;;
61531;SDS011;47397;48.194;11.632;2022-09-24T00:04:36;4.07;;;3.67;;
61531;SDS011;47397;48.194;11.632;2022-09-24T00:05:38;4.07;;;3.50;;
61531;SDS011;47397;48.194;11.632;2022-09-24T00:06:40;4.10;;;3.70;;
61531;SDS011;47397;48.194;11.632;2022-09-24T00:07:42;4.13;;;3.72;;
61531;SDS011;47397;48.194;11.632;2022-09-24T00:08:43;4.10;;;3.70;;
61531;SDS011;47397;48.194;11.632;2022-09-24T00:09:43;4.00;;;3.60;;
61531;SDS011;47397;48.194;11.632;2022-09-24T00:10:45;4.03;;;3.63;;
61531;SDS011;47397;48.194;11.632;2022-09-24T00:11:46;4.25;;;3.85;;
61531;SDS011;47397;48.194;11.632;2022-09-24T00:12:47;4.90;;;4.05;;
61531;SDS011;47397;48.194;11.632;2022-09-24T00:13:49;4.13;;;3.72;;
61531;SDS011;47397;48.194;11.632;2022-09-24T00:14:50;4.60;;;3.72;;
61531;SDS011;47397;48.194;11.632;2022-09-24T00:15:51;3.83;;;3.42;;
61531;SDS011;47397;48.194;11.632;2022-09-24T00:16:51;4.05;;;3.65;;
61531;SDS011;47397;48.194;11.632;2022-09-24T00:17:53;5.05;;;3.97;;
61531;SDS011;47397;48.194;11.632;2022-09-24T00:18:53;5.30;;;3.90;;
61531;SDS011;47397;48.194;11.632;2022-09-24T00:19:54;4.10;;;3.65;;
61531;SDS011;47397;48.194;11.632;2022-09-24T00:20:54;4.78;;;3.63;;
61531;SDS011;47397;48.194;11.632;2022-09-24T00:21:56;4.00;;;3.60;;
61531;SDS011;47397;48.194;11.632;2022-09-24T00:22:56;4.10;;;3.80;;
61531;SDS011;47397;48.194;11.632;2022-09-24T00:23:57;3.97;;;3.58;;
61531;SDS011;47397;48.194;11.632;2022-09-24T00:24:59;3.63;;;3.33;;
61531;SDS011;47397;48.194;11.632;2022-09-24T00:25:59;4.07;;;3.67;;
61531;SDS011;47397;48.194;11.632;2022-09-24T00:27:00;4.70;;;3.90;;
61531;SDS011;47397;48.194;11.632;2022-09-24T00:28:01;3.92;;;3.42;;
61531;SDS011;47397;48.194;11.632;2022-09-24T00:29:02;4.22;;;3.83;;
61531;SDS011;47397;48.194;11.632;2022-09-24T00:30:02;4.30;;;3.42;;
61531;SDS011;47397;48.194;11.632;2022-09-24T00:31:04;4.07;;;3.67;;
61531;SDS011;47397;48.194;11.632;2022-09-24T00:32:05;4.03;;;3.40;;
61531;SDS011;47397;48.194;11.632;2022-09-24T00:33:09;3.67;;;3.35;;
61531;SDS011;47397;48.194;11.632;2022-09-24T00:34:10;3.85;;;3.45;;
61531;SDS011;47397;48.194;11.632;2022-09-24T00:35:10;4.22;;;3.80;;
61531;SDS011;47397;48.194;11.632;2022-09-24T00:36:11;4.35;;;3.95;;
61531;SDS011;47397;48.194;11.632;2022-09-24T00:37:12;4.72;;;3.90;;
61531;SDS011;47397;48.194;11.632;2022-09-24T00:38:12;4.68;;;3.60;;
61531;SDS011;47397;48.194;11.632;2022-09-24T00:39:13;3.90;;;3.50;;
61531;SDS011;47397;48.194;11.632;2022-09-24T00:40:14;4.75;;;3.75;;
61531;SDS011;47397;48.194;11.632;2022-09-24T00:41:14;4.55;;;3.45;;
61531;SDS011;47397;48.194;11.632;2022-09-24T00:42:17;4.00;;;3.60;;
61531;SDS011;47397;48.194;11.632;2022-09-24T00:43:22;4.00;;;3.60;;
61531;SDS011;47397;48.194;11.632;2022-09-24T00:44:46;4.22;;;3.67;;
61531;SDS011;47397;48.194;11.632;2022-09-24T00:45:48;4.75;;;3.60;;
61531;SDS011;47397;48.194;11.632;2022-09-24T00:46:50;4.55;;;3.80;;
61531;SDS011;47397;48.194;11.632;2022-09-24T00:47:50;3.75;;;3.45;;
61531;SDS011;47397;48.194;11.632;2022-09-24T00:48:54;4.30;;;3.75;;
61531;SDS011;47397;48.194;11.632;2022-09-24T00:50:05;4.32;;;3.47;;
61531;SDS011;47397;48.194;11.632;2022-09-24T00:51:14;3.90;;;3.50;;
61531;SDS011;47397;48.194;11.632;2022-09-24T00:52:18;6.30;;;4.00;;
61531;SDS011;47397;48.194;11.632;2022-09-24T00:53:19;4.22;;;3.60;;
61531;SDS011;47397;48.194;11.632;2022-09-24T00:54:24;5.72;;;3.33;;
61531;SDS011;47397;48.194;11.632;2022-09-24T00:55:26;3.97;;;3.58;;
61531;SDS011;47397;48.194;11.632;2022-09-24T00:56:28;4.03;;;3.60;;
61531;SDS011;47397;48.194;11.632;2022-09-24T00:57:31;4.78;;;3.50;;
61531;SDS011;47397;48.194;11.632;2022-09-24T00:58:32;3.60;;;3.08;;
61531;SDS011;47397;48.194;11.632;2022-09-24T00:59:32;3.95;;;3.55;;
61531;SDS011;47397;48.194;11.632;2022-09-24T01:00:35;5.00;;;3.50;;
61531;SDS011;47397;48.194;11.632;2022-09-24T01:01:36;4.47;;;4.03;;
61531;SDS011;47397;48.194;11.632;2022-09-24T01:02:37;3.88;;;3.53;;
61531;SDS011;47397;48.194;11.632;2022-09-24T01:03:41;4.53;;;3.65;;
61531;SDS011;47397;48.194;11.632;2022-09-24T01:04:44;4.32;;;3.80;;
61531;SDS011;47397;48.194;11.632;2022-09-24T01:05:45;4.68;;;3.80;;
61531;SDS011;47397;48.194;11.632;2022-09-24T01:06:45;3.90;;;3.50;;
61531;SDS011;47397;48.194;11.632;2022-09-24T01:07:46;4.90;;;3.35;;
61531;SDS011;47397;48.194;11.632;2022-09-24T01:08:47;3.75;;;3.33;;
61531;SDS011;47397;48.194;11.632;2022-09-24T01:09:48;4.03;;;3.63;;
61531;SDS011;47397;48.194;11.632;2022-09-24T01:10:59;4.10;;;3.70;;
61531;SDS011;47397;48.194;11.632;2022-09-24T01:12:09;3.60;;;3.30;;
61531;SDS011;47397;48.194;11.632;2022-09-24T01:13:19;3.88;;;3.45;;
61531;SDS011;47397;48.194;11.632;2022-09-24T01:14:33;3.63;;;3.10;;
61531;SDS011;47397;48.194;11.632;2022-09-24T01:15:47;3.35;;;3.05;;
61531;SDS011;47397;48.194;11.632;2022-09-24T01:16:55;3.58;;;3.20;;
61531;SDS011;47397;48.194;11.632;2022-09-24T01:18:04;3.85;;;3.30;;
61531;SDS011;47397;48.194;11.632;2022-09-24T01:19:13;3.90;;;3.28;;
61531;SDS011;47397;48.194;11.632;2022-09-24T01:20:37;3.50;;;3.17;;
61531;SDS011;47397;48.194;11.632;2022-09-24T01:21:53;5.07;;;3.53;;
61531;SDS011;47397;48.194;11.632;2022-09-24T01:23:01;3.75;;;3.45;;
61531;SDS011;47397;48.194;11.632;2022-09-24T01:24:34;4.07;;;3.30;;
61531;SDS011;47397;48.194;11.632;2022-09-24T01:25:46;4.88;;;3.70;;
61531;SDS011;47397;48.194;11.632;2022-09-24T01:26:57;3.90;;;3.38;;
61531;SDS011;47397;48.194;11.632;2022-09-24T01:28:07;3.65;;;3.28;;
61531;SDS011;47397;48.194;11.632;2022-09-24T01:29:32;3.80;;;3.40;;
61531;SDS011;47397;48.194;11.632;2022-09-24T01:30:38;4.13;;;3.70;;
61531;SDS011;47397;48.194;11.632;2022-09-24T01:31:42;3.80;;;3.40;;
61531;SDS011;47397;48.194;11.632;2022-09-24T01:32:49;3.70;;;3.20;;
61531;SDS011;47397;48.194;11.632;2022-09-24T01:33:54;3.35;;;3.00;;
61531;SDS011;47397;48.194;11.632;2022-09-24T01:34:59;3.40;;;3.10;;
61531;SDS011;47397;48.194;11.632;2022-09-24T01:36:02;4.80;;;3.50;;
61531;SDS011;47397;48.194;11.632;2022-09-24T01:37:05;3.63;;;3.33;;
61531;SDS011;47397;48.194;11.632;2022-09-24T01:38:07;3.38;;;3.03;;
61531;SDS011;47397;48.194;11.632;2022-09-24T01:39:17;3.42;;;3.13;;
61531;SDS011;47397;48.194;11.632;2022-09-24T01:40:19;4.05;;;3.40;;
61531;SDS011;47397;48.194;11.632;2022-09-24T01:41:23;4.00;;;3.45;;
61531;SDS011;47397;48.194;11.632;2022-09-24T01:42:24;4.93;;;3.35;;
61531;SDS011;47397;48.194;11.632;2022-09-24T01:43:28;3.40;;;3.10;;
61531;SDS011;47397;48.194;11.632;2022-09-24T01:44:29;3.30;;;2.90;;
61531;SDS011;47397;48.194;11.632;2022-09-24T01:45:31;3.55;;;3.10;;
61531;SDS011;47397;48.194;11.632;2022-09-24T01:46:33;4.05;;;3.60;;
61531;SDS011;47397;48.194;11.632;2022-09-24T01:47:38;4.10;;;3.45;;
61531;SDS011;47397;48.194;11.632;2022-09-24T01:48:39;3.80;;;3.08;;
61531;SDS011;47397;48.194;11.632;2022-09-24T01:49:40;3.70;;;3.40;;
61531;SDS011;47397;48.194;11.632;2022-09-24T01:50:41;3.95;;;2.88;;
61531;SDS011;47397;48.194;11.632;2022-09-24T01:51:45;4.00;;;3.60;;
61531;SDS011;47397;48.194;11.632;2022-09-24T01:52:52;4.15;;;3.60;;
61531;SDS011;47397;48.194;11.632;2022-09-24T01:53:57;4.35;;;3.50;;
61531;SDS011;47397;48.194;11.632;2022-09-24T01:55:03;3.30;;;3.00;;
61531;SDS011;47397;48.194;11.632;2022-09-24T01:56:07;3.17;;;2.85;;
61531;SDS011;47397;48.194;11.632;2022-09-24T01:57:13;4.40;;;3.22;;
61531;SDS011;47397;48.194;11.632;2022-09-24T01:58:20;3.88;;;3.50;;
61531;SDS011;47397;48.194;11.632;2022-09-24T01:59:26;3.45;;;3.15;;
61531;SDS011;47397;48.194;11.632;2022-09-24T02:00:32;3.70;;;3.38;;
61531;SDS011;47397;48.194;11.632;2022-09-24T02:01:33;3.30;;;2.90;;
61531;SDS011;47397;48.194;11.632;2022-09-24T02:02:42;3.42;;;2.90;;
61531;SDS011;47397;48.194;11.632;2022-09-24T02:03:46;3.58;;;3.28;;
61531;SDS011;47397;48.194;11.632;2022-09-24T02:04:52;3.72;;;3.25;;
61531;SDS011;47397;48.194;11.632;2022-09-24T02:05:58;4.68;;;3.30;;
61531;SDS011;47397;48.194;11.632;2022-09-24T02:07:02;3.65;;;3.25;;
61531;SDS011;47397;48.194;11.632;2022-09-24T02:08:05;4.25;;;2.92;;
61531;SDS011;47397;48.194;11.632;2022-09-24T02:10:29;3.20;;;2.90;;
61531;SDS011;47397;48.194;11.632;2022-09-24T02:11:33;3.35;;;2.97;;
61531;SDS011;47397;48.194;11.632;2022-09-24T02:12:36;4.07;;;3.15;;
61531;SDS011;47397;48.194;11.632;2022-09-24T02:13:41;4.20;;;3.20;;
61531;SDS011;47397;48.194;11.632;2022-09-24T02:14:45;3.70;;;2.90;;
61531;SDS011;47397;48.194;11.632;2022-09-24T02:15:52;3.65;;;3.00;;
61531;SDS011;47397;48.194;11.632;2022-09-24T02:16:58;3.33;;;3.03;;
61531;SDS011;47397;48.194;11.632;2022-09-24T02:18:02;3.47;;;3.17;;
61531;SDS011;47397;48.194;11.632;2022-09-24T02:19:07;3.67;;;3.25;;
61531;SDS011;47397;48.194;11.632;2022-09-24T02:20:11;3.78;;;3.00;;
61531;SDS011;47397;48.194;11.632;2022-09-24T02:21:15;4.18;;;3.40;;
61531;SDS011;47397;48.194;11.632;2022-09-24T02:22:17;3.10;;;2.80;;
61531;SDS011;47397;48.194;11.632;2022-09-24T02:23:17;3.40;;;3.10;;
61531;SDS011;47397;48.194;11.632;2022-09-24T02:24:19;3.55;;;2.85;;
61531;SDS011;47397;48.194;11.632;2022-09-24T02:25:24;5.40;;;2.88;;
61531;SDS011;47397;48.194;11.632;2022-09-24T02:26:29;3.35;;;2.88;;
61531;SDS011;47397;48.194;11.632;2022-09-24T02:27:30;4.15;;;3.08;;
61531;SDS011;47397;48.194;11.632;2022-09-24T02:28:30;3.80;;;3.40;;
61531;SDS011;47397;48.194;11.632;2022-09-24T02:29:32;3.63;;;2.80;;
61531;SDS011;47397;48.194;11.632;2022-09-24T02:30:34;4.38;;;3.58;;
61531;SDS011;47397;48.194;11.632;2022-09-24T02:31:41;3.30;;;3.00;;
61531;SDS011;47397;48.194;11.632;2022-09-24T02:32:46;3.47;;;3.17;;
61531;SDS011;47397;48.194;11.632;2022-09-24T02:33:48;4.28;;;3.58;;
61531;SDS011;47397;48.194;11.632;2022-09-24T02:34:51;3.70;;;3.28;;
61531;SDS011;47397;48.194;11.632;2022-09-24T02:35:55;3.33;;;2.92;;
61531;SDS011;47397;48.194;11.632;2022-09-24T02:36:56;3.97;;;3.22;;
61531;SDS011;47397;48.194;11.632;2022-09-24T02:37:58;3.38;;;2.95;;
61531;SDS011;47397;48.194;11.632;2022-09-24T02:38:59;3.05;;;2.75;;
61531;SDS011;47397;48.194;11.632;2022-09-24T02:39:59;4.13;;;3.00;;
61531;SDS011;47397;48.194;11.632;2022-09-24T02:41:00;4.25;;;3.25;;
61531;SDS011;47397;48.194;11.632;2022-09-24T02:42:01;3.60;;;3.05;;
61531;SDS011;47397;48.194;11.632;2022-09-24T02:43:02;3.60;;;3.13;;
61531;SDS011;47397;48.194;11.632;2022-09-24T02:44:02;3.47;;;2.90;;
61531;SDS011;47397;48.194;11.632;2022-09-24T02:45:03;3.50;;;3.03;;
61531;SDS011;47397;48.194;11.632;2022-09-24T02:46:04;3.72;;;2.80;;
61531;SDS011;47397;48.194;11.632;2022-09-24T02:47:06;3.08;;;2.60;;
61531;SDS011;47397;48.194;11.632;2022-09-24T02:48:07;3.00;;;2.60;;
61531;SDS011;47397;48.194;11.632;2022-09-24T02:49:07;4.15;;;2.70;;
61531;SDS011;47397;48.194;11.632;2022-09-24T02:50:08;3.42;;;3.08;;
61531;SDS011;47397;48.194;11.632;2022-09-24T02:51:08;3.40;;;3.00;;
61531;SDS011;47397;48.194;11.632;2022-09-24T02:52:09;3.65;;;3.10;;
61531;SDS011;47397;48.194;11.632;2022-09-24T02:53:09;4.25;;;2.92;;
61531;SDS011;47397;48.194;11.632;2022-09-24T02:54:10;3.30;;;3.00;;
61531;SDS011;47397;48.194;11.632;2022-09-24T02:55:10;3.20;;;2.80;;
61531;SDS011;47397;48.194;11.632;2022-09-24T02:56:11;3.45;;;2.72;;
61531;SDS011;47397;48.194;11.632;2022-09-24T02:57:11;3.35;;;3.05;;
61531;SDS011;47397;48.194;11.632;2022-09-24T02:58:12;3.30;;;3.00;;
61531;SDS011;47397;48.194;11.632;2022-09-24T02:59:12;3.00;;;2.72;;
61531;SDS011;47397;48.194;11.632;2022-09-24T03:00:13;3.47;;;3.10;;
61531;SDS011;47397;48.194;11.632;2022-09-24T03:01:14;3.72;;;3.33;;
61531;SDS011;47397;48.194;11.632;2022-09-24T03:02:15;3.17;;;2.88;;
61531;SDS011;47397;48.194;11.632;2022-09-24T03:03:16;3.35;;;3.05;;
61531;SDS011;47397;48.194;11.632;2022-09-24T03:04:16;3.30;;;2.97;;
61531;SDS011;47397;48.194;11.632;2022-09-24T03:05:17;3.30;;;2.78;;
61531;SDS011;47397;48.194;11.632;2022-09-24T03:06:17;3.80;;;3.10;;
61531;SDS011;47397;48.194;11.632;2022-09-24T03:07:18;3.85;;;2.95;;
61531;SDS011;47397;48.194;11.632;2022-09-24T03:08:18;3.30;;;3.00;;
61531;SDS011;47397;48.194;11.632;2022-09-24T03:09:19;3.63;;;3.30;;
61531;SDS011;47397;48.194;11.632;2022-09-24T03:10:19;3.30;;;3.00;;
61531;SDS011;47397;48.194;11.632;2022-09-24T03:11:20;3.53;;;2.85;;
61531;SDS011;47397;48.194;11.632;2022-09-24T03:12:20;3.40;;;3.10;;
61531;SDS011;47397;48.194;11.632;2022-09-24T03:13:21;3.65;;;3.08;;
61531;SDS011;47397;48.194;11.632;2022-09-24T03:14:21;3.55;;;2.70;;
61531;SDS011;47397;48.194;11.632;2022-09-24T03:15:22;3.38;;;2.97;;
61531;SDS011;47397;48.194;11.632;2022-09-24T03:16:22;3.70;;;3.17;;
61531;SDS011;47397;48.194;11.632;2022-09-24T03:17:24;3.40;;;3.05;;
61531;SDS011;47397;48.194;11.632;2022-09-24T03:18:24;3.30;;;3.00;;
61531;SDS011;47397;48.194;11.632;2022-09-24T03:19:25;3.80;;;2.95;;
61531;SDS011;47397;48.194;11.632;2022-09-24T03:20:25;3.13;;;2.83;;
61531;SDS011;47397;48.194;11.632;2022-09-24T03:21:26;4.40;;;2.80;;
61531;SDS011;47397;48.194;11.632;2022-09-24T03:22:26;3.85;;;3.45;;
61531;SDS011;47397;48.194;11.632;2022-09-24T03:23:27;2.85;;;2.60;;
61531;SDS011;47397;48.194;11.632;2022-09-24T03:24:27;3.80;;;3.20;;
61531;SDS011;47397;48.194;11.632;2022-09-24T03:25:28;3.05;;;2.78;;
61531;SDS011;47397;48.194;11.632;2022-09-24T03:26:28;2.92;;;2.63;;
61531;SDS011;47397;48.194;11.632;2022-09-24T03:27:28;3.38;;;3.08;;
61531;SDS011;47397;48.194;11.632;2022-09-24T03:28:29;3.40;;;2.88;;
61531;SDS011;47397;48.194;11.632;2022-09-24T03:29:30;3.40;;;2.92;;
61531;SDS011;47397;48.194;11.632;2022-09-24T03:30:30;3.10;;;2.80;;
61531;SDS011;47397;48.194;11.632;2022-09-24T03:31:30;3.97;;;3.05;;
61531;SDS011;47397;48.194;11.632;2022-09-24T03:32:32;3.65;;;3.22;;
61531;SDS011;47397;48.194;11.632;2022-09-24T03:33:34;3.53;;;2.92;;
61531;SDS011;47397;48.194;11.632;2022-09-24T03:34:35;3.30;;;3.00;;
61531;SDS011;47397;48.194;11.632;2022-09-24T03:35:36;3.10;;;2.80;;
61531;SDS011;47397;48.194;11.632;2022-09-24T03:36:36;3.95;;;3.20;;
61531;SDS011;47397;48.194;11.632;2022-09-24T03:37:36;3.47;;;3.10;;
61531;SDS011;47397;48.194;11.632;2022-09-24T03:38:37;3.78;;;3.33;;
61531;SDS011;47397;48.194;11.632;2022-09-24T03:39:39;3.60;;;3.25;;
61531;SDS011;47397;48.194;11.632;2022-09-24T03:40:39;3.63;;;3.33;;
61531;SDS011;47397;48.194;11.632;2022-09-24T03:41:40;3.58;;;3.10;;
61531;SDS011;47397;48.194;11.632;2022-09-24T03:42:40;3.78;;;3.10;;
61531;SDS011;47397;48.194;11.632;2022-09-24T03:43:40;4.63;;;3.03;;
61531;SDS011;47397;48.194;11.632;2022-09-24T03:44:41;3.30;;;3.00;;
61531;SDS011;47397;48.194;11.632;2022-09-24T03:45:42;3.50;;;3.20;;
61531;SDS011;47397;48.194;11.632;2022-09-24T03:46:42;4.28;;;3.03;;
61531;SDS011;47397;48.194;11.632;2022-09-24T03:47:44;3.22;;;2.92;;
61531;SDS011;47397;48.194;11.632;2022-09-24T03:48:44;3.47;;;2.65;;
61531;SDS011;47397;48.194;11.632;2022-09-24T03:49:45;3.30;;;3.00;;
61531;SDS011;47397;48.194;11.632;2022-09-24T03:50:45;3.50;;;3.08;;
61531;SDS011;47397;48.194;11.632;2022-09-24T03:51:46;3.22;;;2.92;;
61531;SDS011;47397;48.194;11.632;2022-09-24T03:52:46;3.45;;;3.15;;
61531;SDS011;47397;48.194;11.632;2022-09-24T03:53:47;3.08;;;2.78;;
61531;SDS011;47397;48.194;11.632;2022-09-24T03:54:47;3.33;;;2.97;;
61531;SDS011;47397;48.194;11.632;2022-09-24T03:55:51;4.00;;;3.10;;
61531;SDS011;47397;48.194;11.632;2022-09-24T03:56:53;3.30;;;3.00;;
61531;SDS011;47397;48.194;11.632;2022-09-24T03:57:53;3.30;;;2.97;;
61531;SDS011;47397;48.194;11.632;2022-09-24T03:58:54;3.42;;;2.80;;
61531;SDS011;47397;48.194;11.632;2022-09-24T03:59:54;3.00;;;2.65;;
61531;SDS011;47397;48.194;11.632;2022-09-24T04:00:54;3.17;;;2.78;;
61531;SDS011;47397;48.194;11.632;2022-09-24T04:01:55;4.45;;;3.10;;
61531;SDS011;47397;48.194;11.632;2022-09-24T04:02:57;2.88;;;2.58;;
61531;SDS011;47397;48.194;11.632;2022-09-24T04:03:57;3.22;;;2.67;;
61531;SDS011;47397;48.194;11.632;2022-09-24T04:04:58;3.55;;;2.45;;
61531;SDS011;47397;48.194;11.632;2022-09-24T04:05:58;3.05;;;2.60;;
61531;SDS011;47397;48.194;11.632;2022-09-24T04:06:58;3.20;;;2.72;;
61531;SDS011;47397;48.194;11.632;2022-09-24T04:07:59;2.80;;;2.35;;
61531;SDS011;47397;48.194;11.632;2022-09-24T04:09:00;3.67;;;2.70;;
61531;SDS011;47397;48.194;11.632;2022-09-24T04:10:00;3.90;;;2.55;;
61531;SDS011;47397;48.194;11.632;2022-09-24T04:11:01;3.38;;;2.63;;
61531;SDS011;47397;48.194;11.632;2022-09-24T04:12:01;2.80;;;2.47;;
61531;SDS011;47397;48.194;11.632;2022-09-24T04:13:01;3.42;;;2.58;;
61531;SDS011;47397;48.194;11.632;2022-09-24T04:14:02;3.13;;;2.75;;
61531;SDS011;47397;48.194;11.632;2022-09-24T04:15:03;3.30;;;2.83;;
61531;SDS011;47397;48.194;11.632;2022-09-24T04:16:04;3.78;;;2.63;;
61531;SDS011;47397;48.194;11.632;2022-09-24T04:17:04;3.97;;;2.90;;
61531;SDS011;47397;48.194;11.632;2022-09-24T04:18:06;3.33;;;2.92;;
61531;SDS011;47397;48.194;11.632;2022-09-24T04:19:07;3.45;;;2.83;;
61531;SDS011;47397;48.194;11.632;2022-09-24T04:20:07;3.33;;;2.78;;
61531;SDS011;47397;48.194;11.632;2022-09-24T04:21:08;3.20;;;2.90;;
61531;SDS011;47397;48.194;11.632;2022-09-24T04:22:08;4.55;;;2.85;;
61531;SDS011;47397;48.194;11.632;2022-09-24T04:23:09;3.20;;;2.85;;
61531;SDS011;47397;48.194;11.632;2022-09-24T04:24:09;2.95;;;2.60;;
61531;SDS011;47397;48.194;11.632;2022-09-24T04:25:10;3.10;;;2.80;;
61531;SDS011;47397;48.194;11.632;2022-09-24T04:26:10;3.40;;;2.85;;
61531;SDS011;47397;48.194;11.632;2022-09-24T04:27:11;2.78;;;2.58;;
61531;SDS011;47397;48.194;11.632;2022-09-24T04:28:11;3.58;;;3.10;;
61531;SDS011;47397;48.194;11.632;2022-09-24T04:29:11;3.20;;;2.90;;
61531;SDS011;47397;48.194;11.632;2022-09-24T04:30:12;3.67;;;2.58;;
61531;SDS011;47397;48.194;11.632;2022-09-24T04:31:13;4.32;;;3.15;;
61531;SDS011;47397;48.194;11.632;2022-09-24T04:32:14;3.47;;;2.88;;
61531;SDS011;47397;48.194;11.632;2022-09-24T04:33:16;3.42;;;2.72;;
61531;SDS011;47397;48.194;11.632;2022-09-24T04:34:16;3.03;;;2.72;;
61531;SDS011;47397;48.194;11.632;2022-09-24T04:35:17;2.80;;;2.50;;
61531;SDS011;47397;48.194;11.632;2022-09-24T04:36:18;3.45;;;2.83;;
61531;SDS011;47397;48.194;11.632;2022-09-24T04:37:18;3.80;;;2.92;;
61531;SDS011;47397;48.194;11.632;2022-09-24T04:38:19;2.92;;;2.60;;
61531;SDS011;47397;48.194;11.632;2022-09-24T04:39:19;2.97;;;2.67;;
61531;SDS011;47397;48.194;11.632;2022-09-24T04:40:20;3.55;;;2.80;;
61531;SDS011;47397;48.194;11.632;2022-09-24T04:41:20;3.47;;;3.17;;
61531;SDS011;47397;48.194;11.632;2022-09-24T04:42:21;3.38;;;2.80;;
61531;SDS011;47397;48.194;11.632;2022-09-24T04:43:21;2.95;;;2.65;;
61531;SDS011;47397;48.194;11.632;2022-09-24T04:44:22;2.78;;;2.50;;
61531;SDS011;47397;48.194;11.632;2022-09-24T04:45:22;2.80;;;2.45;;
61531;SDS011;47397;48.194;11.632;2022-09-24T04:46:23;3.22;;;2.42;;
61531;SDS011;47397;48.194;11.632;2022-09-24T04:47:23;2.88;;;2.58;;
61531;SDS011;47397;48.194;11.632;2022-09-24T04:48:25;3.80;;;2.40;;
61531;SDS011;47397;48.194;11.632;2022-09-24T04:49:25;3.10;;;2.80;;
61531;SDS011;47397;48.194;11.632;2022-09-24T04:50:26;3.05;;;2.58;;
61531;SDS011;47397;48.194;11.632;2022-09-24T04:51:28;3.53;;;2.55;;
61531;SDS011;47397;48.194;11.632;2022-09-24T04:52:28;3.17;;;2.80;;
61531;SDS011;47397;48.194;11.632;2022-09-24T04:53:29;3.00;;;2.67;;
61531;SDS011;47397;48.194;11.632;2022-09-24T04:54:30;3.00;;;2.50;;
61531;SDS011;47397;48.194;11.632;2022-09-24T04:55:30;2.90;;;2.60;;
61531;SDS011;47397;48.194;11.632;2022-09-24T04:56:31;3.15;;;2.53;;
61531;SDS011;47397;48.194;11.632;2022-09-24T04:57:31;3.03;;;2.72;;
61531;SDS011;47397;48.194;11.632;2022-09-24T04:58:32;2.78;;;2.53;;
61531;SDS011;47397;48.194;11.632;2022-09-24T04:59:32;3.05;;;2.67;;
61531;SDS011;47397;48.194;11.632;2022-09-24T05:00:32;2.97;;;2.53;;
61531;SDS011;47397;48.194;11.632;2022-09-24T05:01:33;3.30;;;2.70;;
61531;SDS011;47397;48.194;11.632;2022-09-24T05:02:33;3.08;;;2.78;;
61531;SDS011;47397;48.194;11.632;2022-09-24T05:03:35;3.55;;;2.67;;
61531;SDS011;47397;48.194;11.632;2022-09-24T05:04:36;2.80;;;2.50;;
61531;SDS011;47397;48.194;11.632;2022-09-24T05:05:36;2.80;;;2.50;;
61531;SDS011;47397;48.194;11.632;2022-09-24T05:06:36;3.17;;;2.50;;
61531;SDS011;47397;48.194;11.632;2022-09-24T05:07:37;2.95;;;2.65;;
61531;SDS011;47397;48.194;11.632;2022-09-24T05:08:38;3.95;;;2.72;;
61531;SDS011;47397;48.194;11.632;2022-09-24T05:09:38;3.05;;;2.70;;
61531;SDS011;47397;48.194;11.632;2022-09-24T05:10:38;3.13;;;2.53;;
61531;SDS011;47397;48.194;11.632;2022-09-24T05:11:39;2.58;;;2.38;;
61531;SDS011;47397;48.194;11.632;2022-09-24T05:12:39;2.53;;;2.33;;
61531;SDS011;47397;48.194;11.632;2022-09-24T05:13:40;3.50;;;2.80;;
61531;SDS011;47397;48.194;11.632;2022-09-24T05:14:40;3.17;;;2.30;;
61531;SDS011;47397;48.194;11.632;2022-09-24T05:15:41;2.80;;;2.50;;
61531;SDS011;47397;48.194;11.632;2022-09-24T05:16:41;2.92;;;2.60;;
61531;SDS011;47397;48.194;11.632;2022-09-24T05:17:41;3.03;;;2.60;;
61531;SDS011;47397;48.194;11.632;2022-09-24T05:18:43;3.90;;;2.70;;
61531;SDS011;47397;48.194;11.632;2022-09-24T05:19:44;5.05;;;2.92;;
61531;SDS011;47397;48.194;11.632;2022-09-24T05:20:44;2.80;;;2.45;;
61531;SDS011;47397;48.194;11.632;2022-09-24T05:21:45;2.97;;;2.60;;
61531;SDS011;47397;48.194;11.632;2022-09-24T05:22:45;2.95;;;2.65;;
61531;SDS011;47397;48.194;11.632;2022-09-24T05:23:47;2.90;;;2.50;;
61531;SDS011;47397;48.194;11.632;2022-09-24T05:24:47;2.92;;;2.47;;
61531;SDS011;47397;48.194;11.632;2022-09-24T05:25:48;2.83;;;2.53;;
61531;SDS011;47397;48.194;11.632;2022-09-24T05:26:48;3.45;;;2.40;;
61531;SDS011;47397;48.194;11.632;2022-09-24T05:27:49;3.00;;;2.58;;
61531;SDS011;47397;48.194;11.632;2022-09-24T05:28:51;3.20;;;2.90;;
61531;SDS011;47397;48.194;11.632;2022-09-24T05:29:51;3.15;;;2.60;;
61531;SDS011;47397;48.194;11.632;2022-09-24T05:30:55;2.92;;;2.40;;
61531;SDS011;47397;48.194;11.632;2022-09-24T05:31:55;3.05;;;2.47;;
61531;SDS011;47397;48.194;11.632;2022-09-24T05:32:56;2.83;;;2.47;;
61531;SDS011;47397;48.194;11.632;2022-09-24T05:33:58;3.33;;;2.50;;
61531;SDS011;47397;48.194;11.632;2022-09-24T05:34:58;3.58;;;2.80;;
61531;SDS011;47397;48.194;11.632;2022-09-24T05:35:59;2.80;;;2.50;;
61531;SDS011;47397;48.194;11.632;2022-09-24T05:36:59;3.10;;;2.45;;
61531;SDS011;47397;48.194;11.632;2022-09-24T05:38:00;2.75;;;2.45;;
61531;SDS011;47397;48.194;11.632;2022-09-24T05:39:00;4.00;;;2.60;;
61531;SDS011;47397;48.194;11.632;2022-09-24T05:40:01;2.88;;;2.30;;
61531;SDS011;47397;48.194;11.632;2022-09-24T05:41:01;3.50;;;2.28;;
61531;SDS011;47397;48.194;11.632;2022-09-24T05:42:02;4.07;;;2.47;;
61531;SDS011;47397;48.194;11.632;2022-09-24T05:43:03;2.53;;;2.33;;
61531;SDS011;47397;48.194;11.632;2022-09-24T05:44:03;3.50;;;2.58;;
61531;SDS011;47397;48.194;11.632;2022-09-24T05:45:04;3.15;;;2.60;;
61531;SDS011;47397;48.194;11.632;2022-09-24T05:46:05;3.53;;;2.70;;
61531;SDS011;47397;48.194;11.632;2022-09-24T05:47:05;2.88;;;2.53;;
61531;SDS011;47397;48.194;11.632;2022-09-24T05:48:06;3.30;;;3.00;;
61531;SDS011;47397;48.194;11.632;2022-09-24T05:49:08;3.10;;;2.67;;
61531;SDS011;47397;48.194;11.632;2022-09-24T05:50:08;3.00;;;2.47;;
61531;SDS011;47397;48.194;11.632;2022-09-24T05:51:08;3.33;;;2.80;;
61531;SDS011;47397;48.194;11.632;2022-09-24T05:52:09;3.03;;;2.70;;
61531;SDS011;47397;48.194;11.632;2022-09-24T05:53:09;3.75;;;2.80;;
61531;SDS011;47397;48.194;11.632;2022-09-24T05:54:10;2.58;;;2.22;;
61531;SDS011;47397;48.194;11.632;2022-09-24T05:55:10;3.33;;;2.22;;
61531;SDS011;47397;48.194;11.632;2022-09-24T05:56:11;2.65;;;2.45;;
61531;SDS011;47397;48.194;11.632;2022-09-24T05:57:11;2.95;;;2.65;;
61531;SDS011;47397;48.194;11.632;2022-09-24T05:58:11;2.97;;;2.50;;
61531;SDS011;47397;48.194;11.632;2022-09-24T05:59:13;2.78;;;2.50;;
61531;SDS011;47397;48.194;11.632;2022-09-24T06:00:13;3.30;;;2.50;;
61531;SDS011;47397;48.194;11.632;2022-09-24T06:01:14;3.35;;;2.58;;
61531;SDS011;47397;48.194;11.632;2022-09-24T06:02:14;3.38;;;2.55;;
61531;SDS011;47397;48.194;11.632;2022-09-24T06:03:15;2.50;;;2.30;;
61531;SDS011;47397;48.194;11.632;2022-09-24T06:04:18;4.28;;;2.60;;
61531;SDS011;47397;48.194;11.632;2022-09-24T06:05:18;2.60;;;2.40;;
61531;SDS011;47397;48.194;11.632;2022-09-24T06:06:18;3.25;;;2.78;;
61531;SDS011;47397;48.194;11.632;2022-09-24T06:07:19;2.60;;;2.38;;
61531;SDS011;47397;48.194;11.632;2022-09-24T06:08:19;3.15;;;2.58;;
61531;SDS011;47397;48.194;11.632;2022-09-24T06:09:20;2.85;;;2.55;;